sensor_id;sensor_type;location;lat;lon;timestamp;P1;durP1;ratioP1;P2;durP2;ratioP2
75785;SDS011;64402;44.708;37.644;2022-12-18T00:02:05;5.88;;;2.38;;
75785;SDS011;64402;44.708;37.644;2022-12-18T00:04:37;8.05;;;4.00;;
75785;SDS011;64402;44.708;37.644;2022-12-18T00:07:11;8.90;;;3.90;;
75785;SDS011;64402;44.708;37.644;2022-12-18T00:09:43;10.57;;;4.25;;
75785;SDS011;64402;44.708;37.644;2022-12-18T00:12:15;8.00;;;2.35;;
75785;SDS011;64402;44.708;37.644;2022-12-18T00:14:46;5.90;;;2.50;;
75785;SDS011;64402;44.708;37.644;2022-12-18T00:17:18;6.45;;;2.63;;
75785;SDS011;64402;44.708;37.644;2022-12-18T00:19:49;8.43;;;2.90;;
75785;SDS011;64402;44.708;37.644;2022-12-18T00:22:21;13.18;;;2.72;;
75785;SDS011;64402;44.708;37.644;2022-12-18T00:24:53;9.02;;;2.55;;
75785;SDS011;64402;44.708;37.644;2022-12-18T00:27:24;7.35;;;2.95;;
75785;SDS011;64402;44.708;37.644;2022-12-18T00:29:56;8.20;;;2.80;;
75785;SDS011;64402;44.708;37.644;2022-12-18T00:32:27;5.60;;;2.45;;
75785;SDS011;64402;44.708;37.644;2022-12-18T00:34:59;6.05;;;2.63;;
75785;SDS011;64402;44.708;37.644;2022-12-18T00:37:30;6.15;;;2.40;;
75785;SDS011;64402;44.708;37.644;2022-12-18T00:40:02;8.13;;;2.78;;
75785;SDS011;64402;44.708;37.644;2022-12-18T00:42:37;6.72;;;2.78;;
75785;SDS011;64402;44.708;37.644;2022-12-18T00:45:28;6.03;;;2.20;;
75785;SDS011;64402;44.708;37.644;2022-12-18T00:48:01;5.55;;;2.10;;
75785;SDS011;64402;44.708;37.644;2022-12-18T00:50:33;8.20;;;3.15;;
75785;SDS011;64402;44.708;37.644;2022-12-18T00:53:04;9.63;;;2.63;;
75785;SDS011;64402;44.708;37.644;2022-12-18T00:55:39;9.25;;;2.70;;
75785;SDS011;64402;44.708;37.644;2022-12-18T00:58:12;7.28;;;2.85;;
75785;SDS011;64402;44.708;37.644;2022-12-18T01:00:45;7.35;;;2.65;;
75785;SDS011;64402;44.708;37.644;2022-12-18T01:03:17;7.68;;;3.20;;
75785;SDS011;64402;44.708;37.644;2022-12-18T01:05:48;7.93;;;2.78;;
75785;SDS011;64402;44.708;37.644;2022-12-18T01:08:20;6.15;;;2.30;;
75785;SDS011;64402;44.708;37.644;2022-12-18T01:10:52;5.70;;;2.58;;
75785;SDS011;64402;44.708;37.644;2022-12-18T01:13:23;7.18;;;2.70;;
75785;SDS011;64402;44.708;37.644;2022-12-18T01:15:55;10.13;;;2.80;;
75785;SDS011;64402;44.708;37.644;2022-12-18T01:18:26;7.95;;;2.53;;
75785;SDS011;64402;44.708;37.644;2022-12-18T01:20:58;8.60;;;2.63;;
75785;SDS011;64402;44.708;37.644;2022-12-18T01:23:29;8.60;;;2.78;;
75785;SDS011;64402;44.708;37.644;2022-12-18T01:26:05;6.35;;;2.42;;
75785;SDS011;64402;44.708;37.644;2022-12-18T01:28:38;9.15;;;2.65;;
75785;SDS011;64402;44.708;37.644;2022-12-18T01:31:14;9.15;;;2.72;;
75785;SDS011;64402;44.708;37.644;2022-12-18T01:33:57;8.02;;;2.97;;
75785;SDS011;64402;44.708;37.644;2022-12-18T01:36:32;10.20;;;3.17;;
75785;SDS011;64402;44.708;37.644;2022-12-18T01:41:39;5.78;;;2.35;;
75785;SDS011;64402;44.708;37.644;2022-12-18T01:47:34;6.68;;;2.03;;
75785;SDS011;64402;44.708;37.644;2022-12-18T01:50:12;7.97;;;2.80;;
75785;SDS011;64402;44.708;37.644;2022-12-18T01:52:49;6.35;;;2.60;;
75785;SDS011;64402;44.708;37.644;2022-12-18T01:55:28;4.93;;;1.88;;
75785;SDS011;64402;44.708;37.644;2022-12-18T01:58:02;7.35;;;2.33;;
75785;SDS011;64402;44.708;37.644;2022-12-18T02:00:35;6.25;;;2.30;;
75785;SDS011;64402;44.708;37.644;2022-12-18T02:03:06;6.38;;;2.65;;
75785;SDS011;64402;44.708;37.644;2022-12-18T02:08:19;6.35;;;2.65;;
75785;SDS011;64402;44.708;37.644;2022-12-18T02:16:36;5.82;;;2.50;;
75785;SDS011;64402;44.708;37.644;2022-12-18T02:19:18;7.07;;;2.70;;
75785;SDS011;64402;44.708;37.644;2022-12-18T02:22:00;6.63;;;2.63;;
75785;SDS011;64402;44.708;37.644;2022-12-18T02:28:15;5.97;;;2.22;;
75785;SDS011;64402;44.708;37.644;2022-12-18T02:30:49;5.43;;;2.35;;
75785;SDS011;64402;44.708;37.644;2022-12-18T02:33:23;5.90;;;2.28;;
75785;SDS011;64402;44.708;37.644;2022-12-18T02:35:56;8.57;;;2.28;;
75785;SDS011;64402;44.708;37.644;2022-12-18T02:38:29;5.88;;;2.20;;
75785;SDS011;64402;44.708;37.644;2022-12-18T02:41:02;6.28;;;2.40;;
75785;SDS011;64402;44.708;37.644;2022-12-18T02:43:35;4.65;;;1.70;;
75785;SDS011;64402;44.708;37.644;2022-12-18T02:46:23;4.45;;;1.80;;
75785;SDS011;64402;44.708;37.644;2022-12-18T02:49:53;4.50;;;1.75;;
75785;SDS011;64402;44.708;37.644;2022-12-18T02:55:06;4.85;;;1.60;;
75785;SDS011;64402;44.708;37.644;2022-12-18T02:58:05;3.40;;;1.30;;
75785;SDS011;64402;44.708;37.644;2022-12-18T03:00:53;9.65;;;2.30;;
75785;SDS011;64402;44.708;37.644;2022-12-18T03:07:05;4.50;;;1.30;;
75785;SDS011;64402;44.708;37.644;2022-12-18T03:09:43;4.10;;;1.60;;
75785;SDS011;64402;44.708;37.644;2022-12-18T03:12:20;4.40;;;1.60;;
75785;SDS011;64402;44.708;37.644;2022-12-18T03:15:03;5.10;;;1.65;;
75785;SDS011;64402;44.708;37.644;2022-12-18T03:17:41;5.43;;;1.70;;
75785;SDS011;64402;44.708;37.644;2022-12-18T03:20:21;6.50;;;1.73;;
75785;SDS011;64402;44.708;37.644;2022-12-18T03:23:12;4.78;;;1.90;;
75785;SDS011;64402;44.708;37.644;2022-12-18T03:25:48;4.97;;;1.77;;
75785;SDS011;64402;44.708;37.644;2022-12-18T03:28:25;7.35;;;2.05;;
75785;SDS011;64402;44.708;37.644;2022-12-18T03:31:01;5.30;;;1.80;;
75785;SDS011;64402;44.708;37.644;2022-12-18T03:33:40;5.03;;;2.20;;
75785;SDS011;64402;44.708;37.644;2022-12-18T03:36:16;4.28;;;1.65;;
75785;SDS011;64402;44.708;37.644;2022-12-18T03:38:48;6.40;;;1.95;;
75785;SDS011;64402;44.708;37.644;2022-12-18T03:41:24;4.80;;;1.80;;
75785;SDS011;64402;44.708;37.644;2022-12-18T03:44:12;3.60;;;1.40;;
75785;SDS011;64402;44.708;37.644;2022-12-18T03:47:06;4.60;;;1.70;;
75785;SDS011;64402;44.708;37.644;2022-12-18T03:49:50;3.22;;;1.42;;
75785;SDS011;64402;44.708;37.644;2022-12-18T03:52:51;4.47;;;1.55;;
75785;SDS011;64402;44.708;37.644;2022-12-18T03:55:46;4.93;;;1.63;;
75785;SDS011;64402;44.708;37.644;2022-12-18T03:58:20;4.95;;;1.77;;
75785;SDS011;64402;44.708;37.644;2022-12-18T04:00:56;5.53;;;1.88;;
75785;SDS011;64402;44.708;37.644;2022-12-18T04:03:32;4.90;;;2.00;;
75785;SDS011;64402;44.708;37.644;2022-12-18T04:06:06;5.80;;;1.83;;
75785;SDS011;64402;44.708;37.644;2022-12-18T04:08:39;5.03;;;1.90;;
75785;SDS011;64402;44.708;37.644;2022-12-18T04:11:11;5.13;;;1.70;;
75785;SDS011;64402;44.708;37.644;2022-12-18T04:13:43;6.30;;;2.10;;
75785;SDS011;64402;44.708;37.644;2022-12-18T04:16:15;4.25;;;1.75;;
75785;SDS011;64402;44.708;37.644;2022-12-18T04:18:46;6.78;;;2.00;;
75785;SDS011;64402;44.708;37.644;2022-12-18T04:21:18;4.78;;;1.67;;
75785;SDS011;64402;44.708;37.644;2022-12-18T04:23:50;4.70;;;1.73;;
75785;SDS011;64402;44.708;37.644;2022-12-18T04:26:22;9.38;;;1.83;;
75785;SDS011;64402;44.708;37.644;2022-12-18T04:28:54;5.88;;;1.88;;
75785;SDS011;64402;44.708;37.644;2022-12-18T04:31:25;6.35;;;1.90;;
75785;SDS011;64402;44.708;37.644;2022-12-18T04:33:57;5.25;;;1.80;;
75785;SDS011;64402;44.708;37.644;2022-12-18T04:36:28;5.43;;;2.13;;
75785;SDS011;64402;44.708;37.644;2022-12-18T04:39:00;6.93;;;2.00;;
75785;SDS011;64402;44.708;37.644;2022-12-18T04:41:32;6.47;;;1.80;;
75785;SDS011;64402;44.708;37.644;2022-12-18T04:44:03;6.80;;;2.08;;
75785;SDS011;64402;44.708;37.644;2022-12-18T04:46:35;8.68;;;2.08;;
75785;SDS011;64402;44.708;37.644;2022-12-18T04:49:07;5.40;;;1.88;;
75785;SDS011;64402;44.708;37.644;2022-12-18T04:51:39;5.22;;;1.90;;
75785;SDS011;64402;44.708;37.644;2022-12-18T04:54:10;8.18;;;2.25;;
75785;SDS011;64402;44.708;37.644;2022-12-18T04:56:42;4.93;;;2.00;;
75785;SDS011;64402;44.708;37.644;2022-12-18T04:59:13;5.75;;;1.95;;
75785;SDS011;64402;44.708;37.644;2022-12-18T05:01:45;6.55;;;2.10;;
75785;SDS011;64402;44.708;37.644;2022-12-18T05:04:16;5.30;;;1.90;;
75785;SDS011;64402;44.708;37.644;2022-12-18T05:06:48;8.05;;;2.28;;
75785;SDS011;64402;44.708;37.644;2022-12-18T05:09:19;6.07;;;2.10;;
75785;SDS011;64402;44.708;37.644;2022-12-18T05:11:51;5.68;;;2.10;;
75785;SDS011;64402;44.708;37.644;2022-12-18T05:14:23;5.60;;;1.98;;
75785;SDS011;64402;44.708;37.644;2022-12-18T05:16:54;6.75;;;2.15;;
75785;SDS011;64402;44.708;37.644;2022-12-18T05:19:26;7.22;;;2.40;;
75785;SDS011;64402;44.708;37.644;2022-12-18T05:21:58;12.82;;;2.47;;
75785;SDS011;64402;44.708;37.644;2022-12-18T05:24:29;5.80;;;2.35;;
75785;SDS011;64402;44.708;37.644;2022-12-18T05:27:01;6.75;;;2.22;;
75785;SDS011;64402;44.708;37.644;2022-12-18T05:29:32;5.47;;;2.20;;
75785;SDS011;64402;44.708;37.644;2022-12-18T05:32:04;7.28;;;2.55;;
75785;SDS011;64402;44.708;37.644;2022-12-18T05:34:35;9.38;;;2.30;;
75785;SDS011;64402;44.708;37.644;2022-12-18T05:37:07;5.22;;;2.00;;
75785;SDS011;64402;44.708;37.644;2022-12-18T05:39:38;7.43;;;2.60;;
75785;SDS011;64402;44.708;37.644;2022-12-18T05:42:10;8.43;;;2.25;;
75785;SDS011;64402;44.708;37.644;2022-12-18T05:44:42;6.43;;;2.20;;
75785;SDS011;64402;44.708;37.644;2022-12-18T05:47:14;5.95;;;2.25;;
75785;SDS011;64402;44.708;37.644;2022-12-18T05:49:46;7.63;;;2.63;;
75785;SDS011;64402;44.708;37.644;2022-12-18T05:52:17;7.30;;;2.13;;
75785;SDS011;64402;44.708;37.644;2022-12-18T05:54:49;6.93;;;2.35;;
75785;SDS011;64402;44.708;37.644;2022-12-18T05:57:20;7.85;;;2.25;;
75785;SDS011;64402;44.708;37.644;2022-12-18T05:59:52;5.38;;;2.22;;
75785;SDS011;64402;44.708;37.644;2022-12-18T06:02:23;6.60;;;2.05;;
75785;SDS011;64402;44.708;37.644;2022-12-18T06:04:55;6.03;;;1.80;;
75785;SDS011;64402;44.708;37.644;2022-12-18T06:07:26;7.18;;;2.40;;
75785;SDS011;64402;44.708;37.644;2022-12-18T06:09:58;6.07;;;2.17;;
75785;SDS011;64402;44.708;37.644;2022-12-18T06:12:29;5.90;;;2.42;;
75785;SDS011;64402;44.708;37.644;2022-12-18T06:15:01;7.28;;;2.40;;
75785;SDS011;64402;44.708;37.644;2022-12-18T06:17:33;6.95;;;2.17;;
75785;SDS011;64402;44.708;37.644;2022-12-18T06:20:05;5.05;;;1.88;;
75785;SDS011;64402;44.708;37.644;2022-12-18T06:22:37;6.45;;;2.80;;
75785;SDS011;64402;44.708;37.644;2022-12-18T06:25:09;6.55;;;2.38;;
75785;SDS011;64402;44.708;37.644;2022-12-18T06:27:40;8.25;;;2.60;;
75785;SDS011;64402;44.708;37.644;2022-12-18T06:30:12;9.27;;;2.67;;
75785;SDS011;64402;44.708;37.644;2022-12-18T06:32:46;6.07;;;2.08;;
75785;SDS011;64402;44.708;37.644;2022-12-18T06:35:19;12.15;;;2.67;;
75785;SDS011;64402;44.708;37.644;2022-12-18T06:37:51;8.05;;;3.03;;
75785;SDS011;64402;44.708;37.644;2022-12-18T06:40:22;12.40;;;3.38;;
75785;SDS011;64402;44.708;37.644;2022-12-18T06:42:54;8.55;;;2.45;;
75785;SDS011;64402;44.708;37.644;2022-12-18T06:45:25;6.10;;;2.20;;
75785;SDS011;64402;44.708;37.644;2022-12-18T06:47:57;7.82;;;2.50;;
75785;SDS011;64402;44.708;37.644;2022-12-18T06:50:29;7.40;;;2.45;;
75785;SDS011;64402;44.708;37.644;2022-12-18T06:53:00;8.85;;;3.00;;
75785;SDS011;64402;44.708;37.644;2022-12-18T06:55:32;12.25;;;2.83;;
75785;SDS011;64402;44.708;37.644;2022-12-18T06:58:04;7.60;;;2.35;;
75785;SDS011;64402;44.708;37.644;2022-12-18T07:00:36;7.28;;;2.42;;
75785;SDS011;64402;44.708;37.644;2022-12-18T07:03:07;9.90;;;3.03;;
75785;SDS011;64402;44.708;37.644;2022-12-18T07:05:39;8.75;;;2.78;;
75785;SDS011;64402;44.708;37.644;2022-12-18T07:08:11;10.88;;;2.90;;
75785;SDS011;64402;44.708;37.644;2022-12-18T07:10:43;9.02;;;3.05;;
75785;SDS011;64402;44.708;37.644;2022-12-18T07:13:15;7.03;;;2.40;;
75785;SDS011;64402;44.708;37.644;2022-12-18T07:15:47;7.45;;;2.45;;
75785;SDS011;64402;44.708;37.644;2022-12-18T07:18:19;11.60;;;2.85;;
75785;SDS011;64402;44.708;37.644;2022-12-18T07:20:50;7.97;;;2.80;;
75785;SDS011;64402;44.708;37.644;2022-12-18T07:23:22;9.32;;;2.92;;
75785;SDS011;64402;44.708;37.644;2022-12-18T07:25:53;7.35;;;2.53;;
75785;SDS011;64402;44.708;37.644;2022-12-18T07:28:25;8.25;;;2.35;;
75785;SDS011;64402;44.708;37.644;2022-12-18T07:30:57;8.35;;;2.40;;
75785;SDS011;64402;44.708;37.644;2022-12-18T07:33:29;7.53;;;2.85;;
75785;SDS011;64402;44.708;37.644;2022-12-18T07:36:01;7.30;;;2.55;;
75785;SDS011;64402;44.708;37.644;2022-12-18T07:38:37;6.65;;;2.22;;
75785;SDS011;64402;44.708;37.644;2022-12-18T07:41:10;7.30;;;2.65;;
75785;SDS011;64402;44.708;37.644;2022-12-18T07:43:42;7.55;;;2.85;;
75785;SDS011;64402;44.708;37.644;2022-12-18T07:46:14;7.50;;;2.90;;
75785;SDS011;64402;44.708;37.644;2022-12-18T07:48:47;7.13;;;3.15;;
75785;SDS011;64402;44.708;37.644;2022-12-18T07:51:18;7.82;;;3.38;;
75785;SDS011;64402;44.708;37.644;2022-12-18T07:53:53;8.75;;;3.53;;
75785;SDS011;64402;44.708;37.644;2022-12-18T07:56:25;8.75;;;3.00;;
75785;SDS011;64402;44.708;37.644;2022-12-18T07:58:57;10.05;;;3.15;;
75785;SDS011;64402;44.708;37.644;2022-12-18T08:01:29;8.77;;;3.10;;
75785;SDS011;64402;44.708;37.644;2022-12-18T08:04:01;5.75;;;2.15;;
75785;SDS011;64402;44.708;37.644;2022-12-18T08:06:32;7.60;;;2.40;;
75785;SDS011;64402;44.708;37.644;2022-12-18T08:09:04;7.00;;;2.40;;
75785;SDS011;64402;44.708;37.644;2022-12-18T08:11:36;9.63;;;2.33;;
75785;SDS011;64402;44.708;37.644;2022-12-18T08:14:08;8.38;;;2.92;;
75785;SDS011;64402;44.708;37.644;2022-12-18T08:16:40;9.93;;;3.03;;
75785;SDS011;64402;44.708;37.644;2022-12-18T08:19:12;8.75;;;3.17;;
75785;SDS011;64402;44.708;37.644;2022-12-18T08:21:43;8.10;;;2.80;;
75785;SDS011;64402;44.708;37.644;2022-12-18T08:24:15;9.50;;;2.85;;
75785;SDS011;64402;44.708;37.644;2022-12-18T08:26:46;10.27;;;3.50;;
75785;SDS011;64402;44.708;37.644;2022-12-18T08:29:18;8.88;;;3.30;;
75785;SDS011;64402;44.708;37.644;2022-12-18T08:31:49;7.55;;;3.10;;
75785;SDS011;64402;44.708;37.644;2022-12-18T08:34:21;11.10;;;3.00;;
75785;SDS011;64402;44.708;37.644;2022-12-18T08:36:52;9.05;;;3.70;;
75785;SDS011;64402;44.708;37.644;2022-12-18T08:39:24;11.38;;;3.85;;
75785;SDS011;64402;44.708;37.644;2022-12-18T08:41:55;12.63;;;4.32;;
75785;SDS011;64402;44.708;37.644;2022-12-18T08:44:46;17.17;;;7.60;;
75785;SDS011;64402;44.708;37.644;2022-12-18T08:47:17;9.90;;;3.42;;
75785;SDS011;64402;44.708;37.644;2022-12-18T08:49:49;14.60;;;8.13;;
75785;SDS011;64402;44.708;37.644;2022-12-18T08:52:20;11.02;;;4.35;;
75785;SDS011;64402;44.708;37.644;2022-12-18T08:54:52;15.73;;;6.32;;
75785;SDS011;64402;44.708;37.644;2022-12-18T08:57:23;11.82;;;3.33;;
75785;SDS011;64402;44.708;37.644;2022-12-18T08:59:55;21.70;;;10.07;;
75785;SDS011;64402;44.708;37.644;2022-12-18T09:02:26;14.63;;;7.20;;
75785;SDS011;64402;44.708;37.644;2022-12-18T09:04:58;11.93;;;4.13;;
75785;SDS011;64402;44.708;37.644;2022-12-18T09:07:29;8.98;;;3.58;;
75785;SDS011;64402;44.708;37.644;2022-12-18T09:10:01;27.10;;;12.05;;
75785;SDS011;64402;44.708;37.644;2022-12-18T09:12:32;14.40;;;6.40;;
75785;SDS011;64402;44.708;37.644;2022-12-18T09:15:04;11.85;;;3.92;;
75785;SDS011;64402;44.708;37.644;2022-12-18T09:17:36;8.73;;;3.25;;
75785;SDS011;64402;44.708;37.644;2022-12-18T09:20:08;14.85;;;3.92;;
75785;SDS011;64402;44.708;37.644;2022-12-18T09:22:40;9.13;;;3.65;;
75785;SDS011;64402;44.708;37.644;2022-12-18T09:25:11;11.18;;;4.28;;
75785;SDS011;64402;44.708;37.644;2022-12-18T09:27:43;10.80;;;3.28;;
75785;SDS011;64402;44.708;37.644;2022-12-18T09:30:17;9.05;;;3.30;;
75785;SDS011;64402;44.708;37.644;2022-12-18T09:32:49;8.82;;;2.40;;
75785;SDS011;64402;44.708;37.644;2022-12-18T09:35:20;10.82;;;2.95;;
75785;SDS011;64402;44.708;37.644;2022-12-18T09:37:52;8.30;;;2.85;;
75785;SDS011;64402;44.708;37.644;2022-12-18T09:40:25;8.57;;;3.10;;
75785;SDS011;64402;44.708;37.644;2022-12-18T09:43:00;8.40;;;2.83;;
75785;SDS011;64402;44.708;37.644;2022-12-18T09:45:45;9.70;;;4.70;;
75785;SDS011;64402;44.708;37.644;2022-12-18T09:48:25;5.63;;;2.05;;
75785;SDS011;64402;44.708;37.644;2022-12-18T09:51:44;9.88;;;3.80;;
75785;SDS011;64402;44.708;37.644;2022-12-18T09:54:01;8.98;;;2.75;;
75785;SDS011;64402;44.708;37.644;2022-12-18T09:56:37;8.98;;;2.78;;
75785;SDS011;64402;44.708;37.644;2022-12-18T09:59:31;7.13;;;2.78;;
75785;SDS011;64402;44.708;37.644;2022-12-18T10:02:14;11.18;;;3.13;;
75785;SDS011;64402;44.708;37.644;2022-12-18T10:10:48;6.53;;;2.75;;
75785;SDS011;64402;44.708;37.644;2022-12-18T10:16:31;13.45;;;4.05;;
75785;SDS011;64402;44.708;37.644;2022-12-18T10:19:18;10.07;;;2.55;;
75785;SDS011;64402;44.708;37.644;2022-12-18T10:22:10;12.80;;;3.13;;
75785;SDS011;64402;44.708;37.644;2022-12-18T10:24:59;8.80;;;2.80;;
75785;SDS011;64402;44.708;37.644;2022-12-18T10:30:28;7.07;;;2.38;;
75785;SDS011;64402;44.708;37.644;2022-12-18T10:33:00;9.93;;;3.55;;
75785;SDS011;64402;44.708;37.644;2022-12-18T10:35:34;9.35;;;3.35;;
75785;SDS011;64402;44.708;37.644;2022-12-18T10:41:06;13.18;;;4.55;;
75785;SDS011;64402;44.708;37.644;2022-12-18T10:44:19;10.85;;;3.70;;
75785;SDS011;64402;44.708;37.644;2022-12-18T10:49:30;12.73;;;3.90;;
75785;SDS011;64402;44.708;37.644;2022-12-18T10:52:22;12.55;;;4.03;;
75785;SDS011;64402;44.708;37.644;2022-12-18T10:55:04;9.48;;;3.92;;
75785;SDS011;64402;44.708;37.644;2022-12-18T10:57:37;9.48;;;3.83;;
75785;SDS011;64402;44.708;37.644;2022-12-18T11:00:21;9.48;;;3.85;;
75785;SDS011;64402;44.708;37.644;2022-12-18T11:02:54;8.40;;;3.97;;
75785;SDS011;64402;44.708;37.644;2022-12-18T11:08:02;11.98;;;3.90;;
75785;SDS011;64402;44.708;37.644;2022-12-18T11:10:35;9.15;;;3.35;;
75785;SDS011;64402;44.708;37.644;2022-12-18T11:13:27;12.07;;;4.03;;
75785;SDS011;64402;44.708;37.644;2022-12-18T11:16:01;14.32;;;4.70;;
75785;SDS011;64402;44.708;37.644;2022-12-18T11:18:33;10.32;;;4.25;;
75785;SDS011;64402;44.708;37.644;2022-12-18T11:21:07;18.20;;;5.22;;
75785;SDS011;64402;44.708;37.644;2022-12-18T11:23:48;12.30;;;5.90;;
75785;SDS011;64402;44.708;37.644;2022-12-18T11:26:22;11.50;;;5.05;;
75785;SDS011;64402;44.708;37.644;2022-12-18T11:29:10;18.50;;;6.00;;
75785;SDS011;64402;44.708;37.644;2022-12-18T11:31:48;9.77;;;5.03;;
75785;SDS011;64402;44.708;37.644;2022-12-18T11:34:24;13.07;;;5.03;;
75785;SDS011;64402;44.708;37.644;2022-12-18T11:36:59;8.75;;;4.10;;
75785;SDS011;64402;44.708;37.644;2022-12-18T11:39:40;15.35;;;7.80;;
75785;SDS011;64402;44.708;37.644;2022-12-18T11:42:18;16.70;;;8.48;;
75785;SDS011;64402;44.708;37.644;2022-12-18T11:45:00;14.43;;;8.32;;
75785;SDS011;64402;44.708;37.644;2022-12-18T11:50:44;14.73;;;7.35;;
75785;SDS011;64402;44.708;37.644;2022-12-18T11:53:21;17.10;;;9.10;;
75785;SDS011;64402;44.708;37.644;2022-12-18T11:56:21;15.23;;;7.10;;
75785;SDS011;64402;44.708;37.644;2022-12-18T12:01:46;9.48;;;5.50;;
75785;SDS011;64402;44.708;37.644;2022-12-18T12:09:59;13.20;;;6.53;;
75785;SDS011;64402;44.708;37.644;2022-12-18T12:12:38;14.00;;;6.90;;
75785;SDS011;64402;44.708;37.644;2022-12-18T12:18:40;13.30;;;6.28;;
75785;SDS011;64402;44.708;37.644;2022-12-18T12:27:06;11.10;;;5.63;;
75785;SDS011;64402;44.708;37.644;2022-12-18T12:29:58;9.70;;;5.03;;
75785;SDS011;64402;44.708;37.644;2022-12-18T12:35:44;15.48;;;6.70;;
75785;SDS011;64402;44.708;37.644;2022-12-18T12:41:20;11.15;;;5.30;;
75785;SDS011;64402;44.708;37.644;2022-12-18T12:44:19;11.40;;;5.88;;
75785;SDS011;64402;44.708;37.644;2022-12-18T12:46:55;17.52;;;7.75;;
75785;SDS011;64402;44.708;37.644;2022-12-18T12:49:31;13.52;;;5.72;;
75785;SDS011;64402;44.708;37.644;2022-12-18T12:52:05;19.92;;;8.90;;
75785;SDS011;64402;44.708;37.644;2022-12-18T12:54:43;19.30;;;8.10;;
75785;SDS011;64402;44.708;37.644;2022-12-18T12:57:18;17.67;;;8.65;;
75785;SDS011;64402;44.708;37.644;2022-12-18T13:00:00;20.80;;;9.40;;
75785;SDS011;64402;44.708;37.644;2022-12-18T13:03:02;27.45;;;11.40;;
75785;SDS011;64402;44.708;37.644;2022-12-18T13:05:54;23.27;;;10.20;;
75785;SDS011;64402;44.708;37.644;2022-12-18T13:08:30;26.98;;;11.20;;
75785;SDS011;64402;44.708;37.644;2022-12-18T13:11:15;30.92;;;13.55;;
75785;SDS011;64402;44.708;37.644;2022-12-18T13:14:33;38.05;;;15.57;;
75785;SDS011;64402;44.708;37.644;2022-12-18T13:20:05;34.42;;;13.18;;
75785;SDS011;64402;44.708;37.644;2022-12-18T13:22:45;30.42;;;13.73;;
75785;SDS011;64402;44.708;37.644;2022-12-18T13:25:35;29.15;;;11.85;;
75785;SDS011;64402;44.708;37.644;2022-12-18T13:30:44;23.58;;;11.43;;
75785;SDS011;64402;44.708;37.644;2022-12-18T13:41:40;23.55;;;10.75;;
75785;SDS011;64402;44.708;37.644;2022-12-18T13:44:28;16.33;;;5.95;;
75785;SDS011;64402;44.708;37.644;2022-12-18T13:47:04;26.85;;;11.35;;
75785;SDS011;64402;44.708;37.644;2022-12-18T13:49:55;28.83;;;11.38;;
75785;SDS011;64402;44.708;37.644;2022-12-18T13:52:28;25.13;;;10.52;;
75785;SDS011;64402;44.708;37.644;2022-12-18T13:55:07;26.10;;;10.43;;
75785;SDS011;64402;44.708;37.644;2022-12-18T13:57:47;25.38;;;11.18;;
75785;SDS011;64402;44.708;37.644;2022-12-18T14:02:53;31.83;;;10.40;;
75785;SDS011;64402;44.708;37.644;2022-12-18T14:05:30;34.05;;;11.10;;
75785;SDS011;64402;44.708;37.644;2022-12-18T14:08:14;21.23;;;9.02;;
75785;SDS011;64402;44.708;37.644;2022-12-18T14:10:47;21.17;;;8.27;;
75785;SDS011;64402;44.708;37.644;2022-12-18T14:13:31;23.35;;;8.77;;
75785;SDS011;64402;44.708;37.644;2022-12-18T14:16:06;23.92;;;9.45;;
75785;SDS011;64402;44.708;37.644;2022-12-18T14:21:26;18.88;;;7.18;;
75785;SDS011;64402;44.708;37.644;2022-12-18T14:24:18;18.50;;;7.80;;
75785;SDS011;64402;44.708;37.644;2022-12-18T14:26:52;17.85;;;7.80;;
75785;SDS011;64402;44.708;37.644;2022-12-18T14:29:25;14.73;;;6.85;;
75785;SDS011;64402;44.708;37.644;2022-12-18T14:32:13;16.85;;;7.43;;
75785;SDS011;64402;44.708;37.644;2022-12-18T14:34:51;18.50;;;8.15;;
75785;SDS011;64402;44.708;37.644;2022-12-18T14:37:27;18.13;;;7.28;;
75785;SDS011;64402;44.708;37.644;2022-12-18T14:39:59;11.90;;;6.07;;
75785;SDS011;64402;44.708;37.644;2022-12-18T14:42:33;13.52;;;5.75;;
75785;SDS011;64402;44.708;37.644;2022-12-18T14:48:25;13.63;;;5.70;;
75785;SDS011;64402;44.708;37.644;2022-12-18T14:53:44;12.57;;;4.80;;
75785;SDS011;64402;44.708;37.644;2022-12-18T15:01:30;13.75;;;6.60;;
75785;SDS011;64402;44.708;37.644;2022-12-18T15:04:23;14.27;;;5.72;;
75785;SDS011;64402;44.708;37.644;2022-12-18T15:07:05;12.95;;;5.82;;
75785;SDS011;64402;44.708;37.644;2022-12-18T15:09:41;13.00;;;5.10;;
75785;SDS011;64402;44.708;37.644;2022-12-18T15:13:05;10.38;;;5.53;;
75785;SDS011;64402;44.708;37.644;2022-12-18T15:18:15;9.95;;;4.78;;
75785;SDS011;64402;44.708;37.644;2022-12-18T15:20:49;10.63;;;5.13;;
75785;SDS011;64402;44.708;37.644;2022-12-18T15:25:58;12.73;;;5.25;;
75785;SDS011;64402;44.708;37.644;2022-12-18T15:31:24;10.50;;;4.82;;
75785;SDS011;64402;44.708;37.644;2022-12-18T15:34:05;15.25;;;5.03;;
75785;SDS011;64402;44.708;37.644;2022-12-18T15:36:43;10.93;;;4.82;;
75785;SDS011;64402;44.708;37.644;2022-12-18T15:39:15;10.13;;;4.95;;
75785;SDS011;64402;44.708;37.644;2022-12-18T15:41:47;12.00;;;4.85;;
75785;SDS011;64402;44.708;37.644;2022-12-18T15:44:37;12.68;;;5.70;;
75785;SDS011;64402;44.708;37.644;2022-12-18T15:47:09;10.27;;;5.72;;
75785;SDS011;64402;44.708;37.644;2022-12-18T15:49:43;11.43;;;5.70;;
75785;SDS011;64402;44.708;37.644;2022-12-18T15:52:15;13.45;;;6.97;;
75785;SDS011;64402;44.708;37.644;2022-12-18T15:54:56;15.68;;;6.93;;
75785;SDS011;64402;44.708;37.644;2022-12-18T15:57:46;12.00;;;6.97;;
75785;SDS011;64402;44.708;37.644;2022-12-18T16:00:17;13.98;;;7.45;;
75785;SDS011;64402;44.708;37.644;2022-12-18T16:02:49;11.88;;;6.35;;
75785;SDS011;64402;44.708;37.644;2022-12-18T16:05:21;12.50;;;6.80;;
75785;SDS011;64402;44.708;37.644;2022-12-18T16:07:54;9.60;;;4.72;;
75785;SDS011;64402;44.708;37.644;2022-12-18T16:10:25;8.75;;;4.93;;
75785;SDS011;64402;44.708;37.644;2022-12-18T16:12:57;11.43;;;5.75;;
75785;SDS011;64402;44.708;37.644;2022-12-18T16:15:29;9.93;;;5.10;;
75785;SDS011;64402;44.708;37.644;2022-12-18T16:18:01;7.93;;;4.38;;
75785;SDS011;64402;44.708;37.644;2022-12-18T16:20:32;7.65;;;3.80;;
75785;SDS011;64402;44.708;37.644;2022-12-18T16:23:04;9.38;;;4.07;;
75785;SDS011;64402;44.708;37.644;2022-12-18T16:25:35;10.80;;;4.75;;
75785;SDS011;64402;44.708;37.644;2022-12-18T16:28:07;8.65;;;4.78;;
75785;SDS011;64402;44.708;37.644;2022-12-18T16:30:39;8.77;;;4.63;;
75785;SDS011;64402;44.708;37.644;2022-12-18T16:33:11;9.38;;;4.93;;
75785;SDS011;64402;44.708;37.644;2022-12-18T16:35:42;11.77;;;4.80;;
75785;SDS011;64402;44.708;37.644;2022-12-18T16:38:14;10.57;;;4.32;;
75785;SDS011;64402;44.708;37.644;2022-12-18T16:40:46;10.75;;;4.93;;
75785;SDS011;64402;44.708;37.644;2022-12-18T16:43:36;10.27;;;5.40;;
75785;SDS011;64402;44.708;37.644;2022-12-18T16:46:08;11.32;;;6.38;;
75785;SDS011;64402;44.708;37.644;2022-12-18T16:48:39;14.88;;;6.35;;
75785;SDS011;64402;44.708;37.644;2022-12-18T16:51:11;9.82;;;5.93;;
75785;SDS011;64402;44.708;37.644;2022-12-18T16:53:42;8.73;;;5.40;;
75785;SDS011;64402;44.708;37.644;2022-12-18T16:56:14;10.98;;;5.95;;
75785;SDS011;64402;44.708;37.644;2022-12-18T16:58:51;10.57;;;5.05;;
75785;SDS011;64402;44.708;37.644;2022-12-18T17:01:23;9.85;;;5.03;;
75785;SDS011;64402;44.708;37.644;2022-12-18T17:04:01;9.32;;;5.47;;
75785;SDS011;64402;44.708;37.644;2022-12-18T17:06:35;12.90;;;5.90;;
75785;SDS011;64402;44.708;37.644;2022-12-18T17:09:11;9.35;;;4.60;;